Terminal Aerodrome Forecast
Issued by NWS Shreveport, LA

Home | Current Version | Previous Version | Text Only | Print | Product List | Glossary On
Versions: 1 2 3 4 5 6 7 8 9 10 11 12 13 14 15 16 17 18 19 20 21 22 23 24 25 26 27 28 29
000
FTUS44 KSHV 232348
TAFMLU
TAF
KMLU 232348Z 2400/2424 22007KT P6SM VCSH BKN025
     FM240200 20003KT P6SM VCTS BKN030CB
      TEMPO 2402/2404 VRB15G25KT 2SM TSRA BKN015CB
     FM240800 20003KT 5SM BR OVC010
     FM241500 33007KT P6SM OVC020
     FM242100 03007KT P6SM OVC035=

USA.gov is the U.S. government's official web portal to all federal, state and local government web resources and services.